createdAt,value
2023-03-21T00:00:21.315Z,7.90
2023-03-21T00:01:21.481Z,9.70
2023-03-21T00:02:21.687Z,13.40
2023-03-21T00:03:21.845Z,9.80
2023-03-21T00:04:22.031Z,10.60
2023-03-21T00:05:22.210Z,8.50
2023-03-21T00:06:22.311Z,9.40
2023-03-21T00:07:22.486Z,10.30
2023-03-21T00:08:22.637Z,11.00
2023-03-21T00:09:22.800Z,11.80
2023-03-21T00:10:37.184Z,10.70
2023-03-21T00:11:24.132Z,10.60
2023-03-21T00:12:23.304Z,12.30
2023-03-21T00:13:23.520Z,10.90
2023-03-21T00:14:23.692Z,8.60
2023-03-21T00:15:27.552Z,8.60
2023-03-21T00:16:32.992Z,12.10
2023-03-21T00:17:25.195Z,8.80
2023-03-21T00:18:24.362Z,13.30
2023-03-21T00:19:24.554Z,10.60
2023-03-21T00:20:24.696Z,12.50
2023-03-21T00:21:55.260Z,12.60
2023-03-21T00:22:26.031Z,12.00
2023-03-21T00:23:25.204Z,8.40
2023-03-21T00:24:25.429Z,15.10
2023-03-21T00:25:25.551Z,12.30
2023-03-21T00:26:25.725Z,10.00
2023-03-21T00:28:27.066Z,9.90
2023-03-21T00:29:26.261Z,12.30
2023-03-21T00:30:26.428Z,10.40
2023-03-21T00:31:26.600Z,8.80
2023-03-21T00:32:26.790Z,12.50
2023-03-21T00:33:26.943Z,11.70
2023-03-21T00:34:36.825Z,16.70
2023-03-21T00:35:57.891Z,11.10
2023-03-21T00:36:28.463Z,11.40
2023-03-21T00:37:27.623Z,11.60
2023-03-21T00:38:27.793Z,12.30
2023-03-21T00:39:27.992Z,9.90
2023-03-21T00:40:35.059Z,10.00
2023-03-21T00:41:42.052Z,13.90
2023-03-21T00:42:29.528Z,12.10
2023-03-21T00:43:28.682Z,10.30
2023-03-21T00:44:28.870Z,13.30
2023-03-21T00:45:29.043Z,15.10
2023-03-21T00:46:39.844Z,12.40
2023-03-21T00:47:30.483Z,15.20
2023-03-21T00:48:29.611Z,12.50
2023-03-21T00:49:29.802Z,16.00
2023-03-21T00:50:29.932Z,13.20
2023-03-21T00:51:30.115Z,12.60
2023-03-21T00:52:40.279Z,13.30
2023-03-21T00:53:31.489Z,16.30
2023-03-21T00:54:30.659Z,12.40
2023-03-21T00:55:30.802Z,13.30
2023-03-21T00:56:30.992Z,16.80
2023-03-21T00:57:38.600Z,14.50
2023-03-21T00:58:32.362Z,16.20
2023-03-21T00:59:31.558Z,20.20
2023-03-21T01:00:31.721Z,16.10
2023-03-21T01:01:32.121Z,15.70
2023-03-21T01:02:32.052Z,13.70
2023-03-21T01:03:32.244Z,15.90
2023-03-21T01:04:32.442Z,16.10
2023-03-21T01:05:32.618Z,16.10
2023-03-21T01:06:32.802Z,14.40
2023-03-21T01:07:32.971Z,15.10
2023-03-21T01:08:48.533Z,17.60
2023-03-21T01:09:34.322Z,17.20
2023-03-21T01:10:33.481Z,20.60
2023-03-21T01:11:33.630Z,15.40
2023-03-21T01:12:33.812Z,22.60
2023-03-21T01:13:36.373Z,17.50
2023-03-21T01:14:34.183Z,16.10
2023-03-21T01:15:34.377Z,20.40
2023-03-21T01:16:34.630Z,15.80
2023-03-21T01:17:34.682Z,17.00
2023-03-21T01:18:34.863Z,18.70
2023-03-21T01:19:50.796Z,19.30
2023-03-21T01:20:36.210Z,15.90
2023-03-21T01:21:35.390Z,19.20
2023-03-21T01:22:35.594Z,16.60
2023-03-21T01:23:35.760Z,18.50
2023-03-21T01:24:40.469Z,17.30
2023-03-21T01:25:37.431Z,19.20
2023-03-21T01:26:36.353Z,15.40
2023-03-21T01:27:36.504Z,14.90
2023-03-21T01:28:36.672Z,17.10
2023-03-21T01:29:36.857Z,16.70
2023-03-21T01:30:42.019Z,17.60
2023-03-21T01:31:38.368Z,16.00
2023-03-21T01:32:37.390Z,22.70
2023-03-21T01:33:37.583Z,18.20
2023-03-21T01:34:37.761Z,19.20
2023-03-21T01:35:50.179Z,19.60
2023-03-21T01:36:39.265Z,23.10
2023-03-21T01:37:38.300Z,21.20
2023-03-21T01:38:38.449Z,18.70
2023-03-21T01:39:38.633Z,19.10
2023-03-21T01:40:38.817Z,16.40
2023-03-21T01:41:44.084Z,16.60
2023-03-21T01:42:40.191Z,22.10
2023-03-21T01:43:39.369Z,15.50
2023-03-21T01:44:39.569Z,21.40
2023-03-21T01:45:40.142Z,19.60
2023-03-21T01:46:49.618Z,17.40
2023-03-21T01:47:41.112Z,19.50
2023-03-21T01:48:40.292Z,18.60
2023-03-21T01:49:40.497Z,18.90
2023-03-21T01:50:40.720Z,17.80
2023-03-21T01:51:40.810Z,20.60
2023-03-21T01:52:40.958Z,15.30
2023-03-21T01:53:41.147Z,17.40
2023-03-21T01:54:41.371Z,17.90
2023-03-21T01:55:41.517Z,16.20
2023-03-21T01:56:41.672Z,20.00
2023-03-21T01:57:51.877Z,18.70
2023-03-21T01:58:43.038Z,20.20
2023-03-21T01:59:42.227Z,16.90
2023-03-21T02:00:42.381Z,17.60
2023-03-21T02:01:42.568Z,17.50
2023-03-21T02:02:42.719Z,17.50
2023-03-21T02:03:42.947Z,15.70
2023-03-21T03:27:50.867Z,16.50
2023-03-21T03:28:49.906Z,17.60
2023-03-21T03:29:50.088Z,18.30
2023-03-21T03:31:07.152Z,17.10
2023-03-21T03:31:51.454Z,20.60
2023-03-21T03:32:50.600Z,22.70
2023-03-21T03:33:50.784Z,19.30
2023-03-21T03:34:50.973Z,21.20
2023-03-21T03:36:04.667Z,18.80
2023-03-21T03:36:52.411Z,20.90
2023-03-21T03:37:51.505Z,18.50
2023-03-21T03:38:51.684Z,18.90
2023-03-21T03:39:51.841Z,20.40
2023-03-21T03:40:52.035Z,19.50
2023-03-21T03:42:53.380Z,20.20
2023-03-21T03:43:52.544Z,20.60
2023-03-21T03:44:52.734Z,19.40
2023-03-21T03:45:52.938Z,19.00
2023-03-21T03:46:53.180Z,17.70
2023-03-21T03:47:57.044Z,17.10
2023-03-21T03:48:53.444Z,18.00
2023-03-21T03:49:53.614Z,19.20
2023-03-21T03:50:53.930Z,20.10
2023-03-21T03:51:53.994Z,18.50
2023-03-21T03:52:57.443Z,19.10
2023-03-21T03:53:54.336Z,18.60
2023-03-21T03:54:54.512Z,21.20
2023-03-21T03:55:54.712Z,17.80
2023-03-21T03:56:54.882Z,20.00
2023-03-21T03:57:55.052Z,16.80
2023-03-21T03:58:55.240Z,21.00
2023-03-21T03:59:55.423Z,19.50
2023-03-21T04:00:55.625Z,18.20
2023-03-21T04:01:55.817Z,20.80
2023-03-21T04:02:55.989Z,20.60
2023-03-21T04:04:06.973Z,19.60
2023-03-21T04:04:57.299Z,20.90
2023-03-21T04:05:56.488Z,17.50
2023-03-21T04:06:58.018Z,16.50
2023-03-21T04:07:56.817Z,17.80
2023-03-21T04:08:57.011Z,22.80
2023-03-21T04:09:57.186Z,16.20
2023-03-21T04:10:57.385Z,18.50
2023-03-21T04:11:57.546Z,20.90
2023-03-21T04:12:57.726Z,20.00
2023-03-21T04:13:57.914Z,17.90
2023-03-21T04:15:09.499Z,19.70
2023-03-21T04:15:59.284Z,22.50
2023-03-21T04:16:58.434Z,19.70
2023-03-21T04:17:58.616Z,18.80
2023-03-21T04:18:58.805Z,16.10
2023-03-21T04:20:10.830Z,18.30
2023-03-21T04:21:00.189Z,20.60
2023-03-21T04:21:59.308Z,18.60
2023-03-21T04:22:59.518Z,20.90
2023-03-21T04:23:59.690Z,19.50
2023-03-21T04:25:00.640Z,17.30
2023-03-21T04:26:00.064Z,19.50
2023-03-21T04:27:00.218Z,19.30
2023-03-21T04:28:00.394Z,17.70
2023-03-21T04:29:00.538Z,19.90
2023-03-21T04:30:00.693Z,21.90
2023-03-21T04:31:06.824Z,21.90
2023-03-21T04:32:02.119Z,20.80
2023-03-21T04:33:01.294Z,19.90
2023-03-21T04:34:01.396Z,20.30
2023-03-21T04:35:01.571Z,20.10
2023-03-21T04:36:01.797Z,21.70
2023-03-21T04:37:01.927Z,21.60
2023-03-21T04:38:02.112Z,20.60
2023-03-21T04:39:02.291Z,21.60
2023-03-21T04:40:02.484Z,22.10
2023-03-21T04:41:02.675Z,22.60
2023-03-21T04:42:02.846Z,21.90
2023-03-21T04:43:03.001Z,24.90
2023-03-21T04:44:03.206Z,24.10
2023-03-21T04:45:03.361Z,23.80
2023-03-21T04:46:03.596Z,21.70
2023-03-21T04:47:03.736Z,20.20
2023-03-21T04:48:03.946Z,20.40
2023-03-21T04:49:04.070Z,22.20
2023-03-21T04:50:04.245Z,23.10
2023-03-21T04:51:04.447Z,23.70
2023-03-21T04:52:04.615Z,21.30
2023-03-21T04:53:04.776Z,19.20
2023-03-21T04:54:04.936Z,18.90
2023-03-21T04:55:05.123Z,18.80
2023-03-21T04:56:05.304Z,22.00
2023-03-21T04:57:05.479Z,21.80
2023-03-21T04:58:05.662Z,23.20
2023-03-21T04:59:05.861Z,19.20
2023-03-21T05:00:06.018Z,18.80
2023-03-21T05:01:06.240Z,20.40
2023-03-21T05:02:06.369Z,19.10
2023-03-21T05:03:06.555Z,22.30
2023-03-21T05:04:06.732Z,22.00
2023-03-21T05:05:06.893Z,20.50
2023-03-21T05:06:07.070Z,24.60
2023-03-21T05:07:07.249Z,22.60
2023-03-21T05:08:07.402Z,21.10
2023-03-21T05:09:07.621Z,22.70
2023-03-21T05:10:07.773Z,16.90
2023-03-21T05:11:07.962Z,18.90
2023-03-21T05:12:08.133Z,22.40
2023-03-21T05:13:08.281Z,24.20
2023-03-21T05:14:08.450Z,20.10
2023-03-21T05:15:08.672Z,17.80
2023-03-21T05:16:08.801Z,18.10
2023-03-21T05:17:08.979Z,24.00
2023-03-21T05:18:09.140Z,20.80
2023-03-21T05:19:09.320Z,20.00
2023-03-21T05:20:09.509Z,19.60
2023-03-21T05:21:09.669Z,23.50
2023-03-21T05:22:09.846Z,23.80
2023-03-21T05:23:10.021Z,19.70
2023-03-21T05:24:10.188Z,24.80
2023-03-21T05:25:10.373Z,21.30
2023-03-21T05:26:10.614Z,21.10
2023-03-21T05:27:10.698Z,22.10
2023-03-21T05:28:10.869Z,24.80
2023-03-21T05:29:11.042Z,23.30
2023-03-21T05:30:11.212Z,20.30
2023-03-21T05:31:11.436Z,22.10
2023-03-21T05:32:11.541Z,24.30
2023-03-21T05:33:11.718Z,23.60
2023-03-21T05:34:11.883Z,25.00
2023-03-21T05:35:12.053Z,21.60
2023-03-21T05:36:12.268Z,23.00
2023-03-21T05:37:12.403Z,24.60
2023-03-21T05:38:12.587Z,25.50
2023-03-21T05:39:12.760Z,23.10
2023-03-21T05:40:12.943Z,23.10
2023-03-21T05:41:13.164Z,22.50
2023-03-21T05:42:13.275Z,22.50
2023-03-21T05:43:13.467Z,23.50
2023-03-21T05:44:13.648Z,22.10
2023-03-21T05:45:13.797Z,22.20
2023-03-21T05:46:14.022Z,23.40
2023-03-21T05:47:14.140Z,24.30
2023-03-21T05:48:14.363Z,21.60
2023-03-21T05:49:14.544Z,21.40
2023-03-21T05:50:14.687Z,22.20
2023-03-21T05:51:14.869Z,25.20
2023-03-21T05:52:15.019Z,24.70
2023-03-21T05:53:15.197Z,23.20
2023-03-21T05:54:15.387Z,22.80
2023-03-21T05:55:15.590Z,21.40
2023-03-21T05:56:15.741Z,22.40
2023-03-21T05:57:15.882Z,23.50
2023-03-21T05:58:16.050Z,22.70
2023-03-21T05:59:16.240Z,23.90
2023-03-21T06:00:16.422Z,25.20
2023-03-21T06:01:16.620Z,21.40
2023-03-21T06:02:16.844Z,23.10
2023-03-21T06:03:16.941Z,25.50
2023-03-21T06:04:17.184Z,25.40
2023-03-21T06:05:17.301Z,24.80
2023-03-21T06:06:17.477Z,24.70
2023-03-21T06:07:17.636Z,32.60
2023-03-21T06:08:17.782Z,24.30
2023-03-21T06:09:17.982Z,23.60
2023-03-21T06:10:18.141Z,22.10
2023-03-21T06:11:18.342Z,23.80
2023-03-21T06:12:18.542Z,25.10
2023-03-21T06:13:18.707Z,23.30
2023-03-21T06:14:18.862Z,28.00
2023-03-21T06:15:19.030Z,25.20
2023-03-21T06:16:19.241Z,24.30
2023-03-21T06:17:19.443Z,25.20
2023-03-21T06:18:19.551Z,23.70
2023-03-21T06:19:19.748Z,25.50
2023-03-21T06:20:19.902Z,21.80
2023-03-21T06:21:20.092Z,24.80
2023-03-21T06:22:20.285Z,25.80
2023-03-21T06:23:20.461Z,25.30
2023-03-21T06:24:20.614Z,27.60
2023-03-21T06:25:20.792Z,26.40
2023-03-21T06:26:20.961Z,24.10
2023-03-21T06:27:21.173Z,26.20
2023-03-21T06:28:21.352Z,24.00
2023-03-21T06:29:21.513Z,24.90
2023-03-21T06:30:21.682Z,25.90
2023-03-21T06:31:21.882Z,27.20
2023-03-21T06:32:22.072Z,21.90
2023-03-21T06:33:22.228Z,22.60
2023-03-21T06:34:22.409Z,24.00
2023-03-21T06:35:22.582Z,25.70
2023-03-21T06:36:22.789Z,23.20
2023-03-21T06:37:22.954Z,22.00
2023-03-21T06:38:23.143Z,23.90
2023-03-21T06:39:23.313Z,24.30
2023-03-21T06:40:23.477Z,24.40
2023-03-21T06:41:24.149Z,25.20
2023-03-21T06:42:23.839Z,22.80
2023-03-21T06:43:24.038Z,22.80
2023-03-21T06:44:24.225Z,23.20
2023-03-21T06:45:24.398Z,23.30
2023-03-21T06:46:24.617Z,24.10
2023-03-21T06:47:24.773Z,26.50
2023-03-21T06:48:24.986Z,22.90
2023-03-21T06:49:25.119Z,22.00
2023-03-21T06:50:25.285Z,23.80
2023-03-21T06:51:25.470Z,23.40
2023-03-21T06:52:25.650Z,20.60
2023-03-21T06:53:25.840Z,25.60
2023-03-21T06:54:25.998Z,21.40
2023-03-21T06:55:26.204Z,23.30
2023-03-21T06:56:26.377Z,22.10
2023-03-21T06:57:26.547Z,23.50
2023-03-21T06:58:26.709Z,24.80
2023-03-21T06:59:26.893Z,23.40
2023-03-21T07:00:27.075Z,23.40
2023-03-21T07:01:27.258Z,22.00
2023-03-21T07:02:27.525Z,21.60
2023-03-21T07:03:27.592Z,22.50
2023-03-21T07:04:27.802Z,22.10
2023-03-21T07:05:27.930Z,25.90
2023-03-21T07:06:28.116Z,24.30
2023-03-21T07:07:28.291Z,19.80
2023-03-21T07:08:28.513Z,22.90
2023-03-21T07:09:28.691Z,19.70
2023-03-21T07:10:28.834Z,24.30
2023-03-21T07:11:29.049Z,19.60
2023-03-21T07:12:29.173Z,21.50
2023-03-21T07:13:29.350Z,21.30
2023-03-21T07:14:29.554Z,20.70
2023-03-21T07:15:29.771Z,20.20
2023-03-21T07:16:29.914Z,22.10
2023-03-21T07:17:30.030Z,19.70
2023-03-21T07:18:30.203Z,20.70
2023-03-21T07:19:30.381Z,22.50
2023-03-21T07:20:30.652Z,20.80
2023-03-21T07:21:30.742Z,19.00
2023-03-21T07:22:30.900Z,22.90
2023-03-21T07:23:31.076Z,20.60
2023-03-21T07:24:31.257Z,18.20
2023-03-21T07:25:31.509Z,17.20
2023-03-21T07:26:31.592Z,18.30
2023-03-21T07:27:31.782Z,21.30
2023-03-21T07:28:31.958Z,21.40
2023-03-21T07:29:32.122Z,18.50
2023-03-21T07:30:32.302Z,20.30
2023-03-21T07:31:32.535Z,19.50
2023-03-21T07:32:32.642Z,17.40
2023-03-21T07:33:32.834Z,21.10
2023-03-21T07:34:33.045Z,25.90
2023-03-21T07:35:33.220Z,19.20
2023-03-21T07:36:33.352Z,20.80
2023-03-21T07:37:33.518Z,17.70
2023-03-21T07:38:33.692Z,17.80
2023-03-21T07:39:33.862Z,17.40
2023-03-21T07:40:34.031Z,18.30
2023-03-21T07:41:34.238Z,16.80
2023-03-21T07:42:34.448Z,19.60
2023-03-21T07:43:35.352Z,17.90
2023-03-21T07:44:34.739Z,19.30
2023-03-21T07:45:35.089Z,18.40
2023-03-21T07:46:35.100Z,16.60
2023-03-21T07:47:35.320Z,17.70
2023-03-21T07:48:35.478Z,19.40
2023-03-21T07:49:35.668Z,16.70
2023-03-21T07:50:35.811Z,18.30
2023-03-21T07:51:36.011Z,18.80
2023-03-21T07:52:36.171Z,20.60
2023-03-21T07:53:36.388Z,18.30
2023-03-21T07:54:36.526Z,21.40
2023-03-21T07:55:36.937Z,15.80
2023-03-21T07:56:36.900Z,18.50
2023-03-21T07:57:37.094Z,18.20
2023-03-21T07:58:37.238Z,15.60
2023-03-21T07:59:37.410Z,17.50
2023-03-21T08:00:37.589Z,16.50
2023-03-21T08:01:37.783Z,19.00
2023-03-21T08:02:38.066Z,15.80
2023-03-21T08:03:38.262Z,14.90
2023-03-21T08:04:38.292Z,15.50
2023-03-21T08:05:38.808Z,19.70
2023-03-21T08:06:38.649Z,17.70
2023-03-21T08:07:38.859Z,18.00
2023-03-21T08:08:39.006Z,17.20
2023-03-21T08:09:39.183Z,18.20
2023-03-21T08:10:39.352Z,16.40
2023-03-21T08:11:39.540Z,16.90
2023-03-21T08:12:39.739Z,19.20
2023-03-21T08:13:39.895Z,16.90
2023-03-21T08:14:40.041Z,21.40
2023-03-21T08:15:40.488Z,17.80
2023-03-21T08:16:40.467Z,16.80
2023-03-21T08:17:40.567Z,20.00
2023-03-21T08:18:40.748Z,16.80
2023-03-21T08:19:40.929Z,18.40
2023-03-21T08:20:41.103Z,14.80
2023-03-21T08:21:41.320Z,21.10
2023-03-21T08:22:41.459Z,16.40
2023-03-21T08:23:41.639Z,16.30
2023-03-21T08:24:41.810Z,14.90
2023-03-21T08:25:42.015Z,13.80
2023-03-21T08:26:42.180Z,16.00
2023-03-21T08:27:42.363Z,15.10
2023-03-21T08:28:42.532Z,18.00
2023-03-21T08:29:42.701Z,14.50
2023-03-21T08:30:42.963Z,18.60
2023-03-21T08:31:43.056Z,17.10
2023-03-21T08:32:43.223Z,18.70
2023-03-21T08:33:43.418Z,16.70
2023-03-21T08:34:43.596Z,17.90
2023-03-21T08:35:44.032Z,17.70
2023-03-21T08:36:43.964Z,15.20
2023-03-21T08:37:44.142Z,19.40
2023-03-21T08:38:44.325Z,16.40
2023-03-21T08:39:44.525Z,14.90
2023-03-21T08:40:44.694Z,16.60
2023-03-21T08:41:44.891Z,14.90
2023-03-21T08:42:45.032Z,15.80
2023-03-21T08:43:45.215Z,17.60
2023-03-21T08:44:45.400Z,19.10
2023-03-21T08:45:45.581Z,14.10
2023-03-21T08:46:45.815Z,17.20
2023-03-21T08:47:46.029Z,15.40
2023-03-21T08:48:46.100Z,13.80
2023-03-21T08:49:46.308Z,18.80
2023-03-21T08:50:46.441Z,18.10
2023-03-21T08:51:46.630Z,15.40
2023-03-21T08:52:46.815Z,17.00
2023-03-21T08:53:46.973Z,14.70
2023-03-21T08:54:47.180Z,17.20
2023-03-21T08:55:47.355Z,14.30
2023-03-21T08:56:47.548Z,13.30
2023-03-21T08:57:47.681Z,14.00
2023-03-21T08:58:47.854Z,18.20
2023-03-21T08:59:48.030Z,14.40
2023-03-21T09:00:48.245Z,14.90
2023-03-21T09:01:48.495Z,16.00
2023-03-21T09:02:48.549Z,12.70
2023-03-21T09:03:48.720Z,15.50
2023-03-21T09:04:48.995Z,14.20
2023-03-21T09:05:49.054Z,14.30
2023-03-21T09:06:49.262Z,15.20
2023-03-21T09:07:49.412Z,18.00
2023-03-21T09:08:49.583Z,12.60
2023-03-21T09:09:58.126Z,13.80
2023-03-21T09:10:50.942Z,17.60
2023-03-21T09:11:52.413Z,14.90
2023-03-21T09:12:50.324Z,12.80
2023-03-21T09:13:50.483Z,13.50
2023-03-21T09:14:50.655Z,15.30
2023-03-21T09:15:50.899Z,15.60
2023-03-21T09:16:51.017Z,12.50
2023-03-21T09:17:51.180Z,12.60
2023-03-21T09:18:51.350Z,11.90
2023-03-21T09:19:51.517Z,11.60
2023-03-21T09:20:51.706Z,13.60
2023-03-21T09:21:51.896Z,15.50
2023-03-21T09:22:52.069Z,13.10
2023-03-21T09:23:52.224Z,11.90
2023-03-21T09:24:52.387Z,14.50
2023-03-21T09:25:56.510Z,13.70
2023-03-21T09:26:52.781Z,12.70
2023-03-21T09:27:52.934Z,12.10
2023-03-21T09:28:53.096Z,12.60
2023-03-21T09:29:53.246Z,12.10
2023-03-21T09:30:53.499Z,11.80
2023-03-21T09:31:53.610Z,12.90
2023-03-21T09:32:53.769Z,12.40
2023-03-21T09:33:53.918Z,11.60
2023-03-21T09:34:54.105Z,10.60
2023-03-21T09:35:54.270Z,12.70
2023-03-21T09:36:54.452Z,11.30
2023-03-21T09:37:54.572Z,11.40
2023-03-21T09:38:54.804Z,10.40
2023-03-21T09:39:54.954Z,11.40
2023-03-21T09:40:55.125Z,10.40
2023-03-21T09:41:55.328Z,10.50
2023-03-21T09:42:55.465Z,11.10
2023-03-21T09:43:55.638Z,13.20
2023-03-21T09:44:55.796Z,12.10
2023-03-21T09:45:55.970Z,11.40
2023-03-21T09:46:56.168Z,14.10
2023-03-21T09:47:56.338Z,12.40
2023-03-21T09:48:57.597Z,9.60
2023-03-21T09:50:01.723Z,11.00
2023-03-21T09:50:57.800Z,13.10
2023-03-21T09:51:57.112Z,12.70
2023-03-21T09:52:57.159Z,11.50
2023-03-21T09:53:57.362Z,10.50
2023-03-21T09:54:57.495Z,11.20
2023-03-21T09:55:57.698Z,11.40
2023-03-21T09:56:57.844Z,11.30
2023-03-21T09:57:57.996Z,12.70
2023-03-21T09:58:58.163Z,11.30
2023-03-21T09:59:58.330Z,11.90
2023-03-21T10:00:58.540Z,10.00
2023-03-21T10:01:58.695Z,10.90
2023-03-21T10:02:58.856Z,10.70
2023-03-21T10:03:59.024Z,9.50
2023-03-21T10:04:59.267Z,11.00
2023-03-21T10:05:59.369Z,13.10
2023-03-21T10:06:59.580Z,12.70
2023-03-21T10:07:59.715Z,13.80
2023-03-21T10:08:59.904Z,12.90
2023-03-21T10:10:00.103Z,12.00
2023-03-21T10:11:00.258Z,11.60
2023-03-21T10:12:00.454Z,10.60
2023-03-21T10:13:00.634Z,13.90
2023-03-21T10:14:00.805Z,15.80
2023-03-21T10:15:00.996Z,14.90
2023-03-21T10:16:01.220Z,10.30
2023-03-21T10:17:01.355Z,13.20
2023-03-21T10:18:01.493Z,11.10
2023-03-21T10:19:01.674Z,12.80
2023-03-21T10:20:01.852Z,14.80
2023-03-21T10:21:02.018Z,13.10
2023-03-21T10:22:03.836Z,15.60
2023-03-21T10:23:02.373Z,13.40
2023-03-21T10:24:02.543Z,13.00
2023-03-21T10:25:02.713Z,11.00
2023-03-21T10:26:02.941Z,11.90
2023-03-21T10:27:03.122Z,11.10
2023-03-21T10:28:03.233Z,13.10
2023-03-21T10:29:03.482Z,11.00
2023-03-21T10:30:03.582Z,9.90
2023-03-21T10:31:03.743Z,11.70
2023-03-21T10:32:03.945Z,11.80
2023-03-21T10:33:04.141Z,10.50
2023-03-21T10:34:04.232Z,12.00
2023-03-21T10:35:04.397Z,11.30
2023-03-21T10:36:04.573Z,12.00
2023-03-21T10:37:04.723Z,10.70
2023-03-21T10:38:04.884Z,11.40
2023-03-21T10:39:05.053Z,11.20
2023-03-21T10:40:05.205Z,11.20
2023-03-21T11:03:25.194Z,10.10
2023-03-21T11:04:25.349Z,10.00
2023-03-21T11:05:25.556Z,8.70
2023-03-21T11:06:25.706Z,10.80
2023-03-21T11:07:25.928Z,8.40
2023-03-21T11:08:26.106Z,9.80
2023-03-21T11:09:26.336Z,12.40
2023-03-21T11:10:28.821Z,14.30
2023-03-21T11:11:26.655Z,9.30
2023-03-21T11:12:26.821Z,10.00
2023-03-21T11:13:27.031Z,8.50
2023-03-21T11:14:27.141Z,9.50
2023-03-21T11:15:27.353Z,9.40
2023-03-21T11:16:27.568Z,9.60
2023-03-21T11:17:27.681Z,8.30
2023-03-21T11:18:27.831Z,8.10
2023-03-21T11:19:27.992Z,9.50
2023-03-21T11:20:28.164Z,9.60
2023-03-21T11:21:29.702Z,8.10
2023-03-21T11:22:28.512Z,8.40
2023-03-21T11:23:28.675Z,11.20
2023-03-21T11:24:28.854Z,7.70
2023-03-21T11:25:29.191Z,7.50
2023-03-21T11:26:29.206Z,10.10
2023-03-21T11:27:29.454Z,7.90
2023-03-21T11:28:29.551Z,12.70
2023-03-21T11:29:29.726Z,7.40
2023-03-21T11:30:29.929Z,8.50
2023-03-21T11:31:30.082Z,8.40
2023-03-21T11:32:30.249Z,10.00
2023-03-21T11:33:30.425Z,8.10
2023-03-21T11:34:30.588Z,6.00
2023-03-21T11:35:30.764Z,8.70
2023-03-21T11:36:30.934Z,11.70
2023-03-21T11:37:31.127Z,6.70
2023-03-21T11:38:31.295Z,7.50
2023-03-21T11:39:31.499Z,8.50
2023-03-21T11:40:31.660Z,9.60
2023-03-21T11:41:31.842Z,7.70
2023-03-21T11:42:32.054Z,7.30
2023-03-21T11:43:32.198Z,6.80
2023-03-21T11:44:32.364Z,8.60
2023-03-21T11:45:32.509Z,7.50
2023-03-21T11:46:32.798Z,6.10
2023-03-21T11:47:32.880Z,9.90
2023-03-21T11:48:33.040Z,7.60
2023-03-21T11:49:33.221Z,9.50
2023-03-21T11:50:33.367Z,7.70
2023-03-21T11:51:33.542Z,7.80
2023-03-21T11:52:33.723Z,7.60
2023-03-21T11:53:33.868Z,8.60
2023-03-21T11:54:34.068Z,8.90
2023-03-21T11:55:34.237Z,9.00
2023-03-21T11:56:34.405Z,6.60
2023-03-21T11:57:34.609Z,6.60
2023-03-21T11:58:34.779Z,7.40
2023-03-21T11:59:34.921Z,6.80
2023-03-21T12:00:35.102Z,7.70
2023-03-21T12:01:35.335Z,6.90
2023-03-21T12:02:35.468Z,8.00
2023-03-21T12:03:47.311Z,5.90
2023-03-21T12:04:36.882Z,5.50
2023-03-21T12:05:36.261Z,6.90
2023-03-21T12:06:36.160Z,6.00
2023-03-21T12:07:36.326Z,5.20
2023-03-21T12:08:36.470Z,5.80
2023-03-21T12:09:36.660Z,8.00
2023-03-21T12:10:36.837Z,8.70
2023-03-21T12:11:37.023Z,5.50
2023-03-21T12:12:39.443Z,6.30
2023-03-21T12:13:37.382Z,5.60
2023-03-21T12:14:37.565Z,5.50
2023-03-21T12:15:38.091Z,5.70
2023-03-21T12:16:38.026Z,5.20
2023-03-21T12:17:38.088Z,7.30
2023-03-21T12:18:38.278Z,5.70
2023-03-21T12:19:38.456Z,5.60
2023-03-21T12:20:38.643Z,5.70
2023-03-21T12:21:38.816Z,4.70
2023-03-21T12:22:39.040Z,5.90
2023-03-21T12:23:39.201Z,6.30
2023-03-21T12:24:39.397Z,6.50
2023-03-21T12:25:39.991Z,4.70
2023-03-21T12:26:39.710Z,4.50
2023-03-21T12:27:41.035Z,5.10
2023-03-21T12:28:40.085Z,5.50
2023-03-21T12:29:40.220Z,5.70
2023-03-21T12:30:40.419Z,4.10
2023-03-21T12:31:40.617Z,5.00
2023-03-21T12:32:40.789Z,6.10
2023-03-21T12:33:40.938Z,5.00
2023-03-21T12:34:41.098Z,3.50
2023-03-21T12:35:41.710Z,4.80
2023-03-21T12:36:41.426Z,5.10
2023-03-21T12:37:41.600Z,6.60
2023-03-21T12:38:41.748Z,5.30
2023-03-21T12:39:41.908Z,6.50
2023-03-21T12:40:42.086Z,4.10
2023-03-21T12:41:42.269Z,5.40
2023-03-21T12:42:42.482Z,3.90
2023-03-21T12:43:42.623Z,5.60
2023-03-21T12:44:42.800Z,6.30
2023-03-21T12:45:47.009Z,3.60
2023-03-21T12:46:43.312Z,4.30
2023-03-21T12:47:43.367Z,4.00
2023-03-21T12:48:43.482Z,5.20
2023-03-21T12:49:43.679Z,5.40
2023-03-21T12:50:43.847Z,4.30
2023-03-21T12:51:44.027Z,5.80
2023-03-21T12:52:44.239Z,5.30
2023-03-21T12:53:44.385Z,5.10
2023-03-21T12:54:44.573Z,6.30
2023-03-21T12:55:44.749Z,5.70
2023-03-21T12:56:44.942Z,4.00
2023-03-21T12:57:56.417Z,8.30
2023-03-21T12:58:46.300Z,6.20
2023-03-21T12:59:45.479Z,8.20
2023-03-21T13:00:45.811Z,7.90
2023-03-21T13:01:45.854Z,9.00
2023-03-21T13:02:46.058Z,7.60
2023-03-21T13:03:46.246Z,8.60
2023-03-21T13:04:46.377Z,6.90
2023-03-21T13:05:46.575Z,6.90
2023-03-21T13:06:46.719Z,7.50
2023-03-21T13:07:46.919Z,8.40
2023-03-21T13:08:47.094Z,6.30
2023-03-21T13:09:47.263Z,11.30
2023-03-21T13:10:47.450Z,7.20
2023-03-21T13:11:47.599Z,5.90
2023-03-21T13:12:47.762Z,8.80
2023-03-21T13:13:47.938Z,8.70
2023-03-21T13:14:48.118Z,7.50
2023-03-21T13:15:48.368Z,7.20
2023-03-21T13:16:48.610Z,6.40
2023-03-21T13:17:48.691Z,7.60
2023-03-21T13:18:48.862Z,6.00
2023-03-21T13:19:49.029Z,9.90
2023-03-21T13:20:49.168Z,7.70
2023-03-21T13:21:49.348Z,8.70
2023-03-21T13:22:49.569Z,8.20
2023-03-21T13:23:49.709Z,6.70
2023-03-21T13:24:49.912Z,8.50
2023-03-21T13:25:50.073Z,7.50
2023-03-21T13:26:50.272Z,8.80
2023-03-21T13:27:50.420Z,13.90
2023-03-21T13:28:50.587Z,6.10
2023-03-21T13:29:50.803Z,8.20
2023-03-21T13:30:50.973Z,9.50
2023-03-21T13:31:52.833Z,7.50
2023-03-21T13:32:51.282Z,11.30
2023-03-21T13:33:51.447Z,8.20
2023-03-21T13:34:51.619Z,8.10
2023-03-21T13:35:51.814Z,6.30
2023-03-21T13:36:52.005Z,7.30
2023-03-21T13:37:52.201Z,6.00
2023-03-21T13:38:52.381Z,6.40
2023-03-21T13:39:52.574Z,5.90
2023-03-21T13:40:52.721Z,6.00
2023-03-21T13:41:52.905Z,8.70
2023-03-21T13:42:53.115Z,6.60
2023-03-21T13:43:53.278Z,5.30
2023-03-21T13:44:53.465Z,8.30
2023-03-21T13:45:53.729Z,6.80
2023-03-21T13:46:54.829Z,5.30
2023-03-21T13:47:54.034Z,5.40
2023-03-21T13:49:01.385Z,6.20
2023-03-21T13:49:55.322Z,7.40
2023-03-21T13:50:54.539Z,5.10
2023-03-21T13:51:54.667Z,6.00
2023-03-21T13:52:54.907Z,7.40
2023-03-21T13:53:55.053Z,5.70
2023-03-21T13:54:55.237Z,6.10
2023-03-21T13:55:55.409Z,5.10
2023-03-21T13:56:55.620Z,4.60
2023-03-21T13:57:55.787Z,4.90
2023-03-21T13:58:55.918Z,7.10
2023-03-21T13:59:56.097Z,5.00
2023-03-21T14:00:56.301Z,6.70
2023-03-21T14:01:56.468Z,4.00
2023-03-21T14:02:56.702Z,3.70
2023-03-21T14:03:56.950Z,5.80
2023-03-21T14:05:05.262Z,4.10
2023-03-21T14:05:58.218Z,4.20
2023-03-21T14:06:57.404Z,7.50
2023-03-21T14:08:06.127Z,4.80
2023-03-21T14:08:58.716Z,3.90
2023-03-21T14:09:57.867Z,5.10
2023-03-21T14:10:58.079Z,5.30
2023-03-21T14:12:03.974Z,4.40
2023-03-21T14:12:59.418Z,4.70
2023-03-21T14:13:58.546Z,5.10
2023-03-21T14:15:06.705Z,3.60
2023-03-21T14:16:00.098Z,4.80
2023-03-21T14:16:59.067Z,5.80
2023-03-21T14:17:59.287Z,6.00
2023-03-21T14:18:59.438Z,3.50
2023-03-21T14:19:59.589Z,5.00
2023-03-21T14:20:59.811Z,5.70
2023-03-21T14:21:59.933Z,3.60
2023-03-21T14:23:00.123Z,4.30
2023-03-21T14:24:00.315Z,6.30
2023-03-21T14:25:00.564Z,5.40
2023-03-21T14:26:00.646Z,5.40
2023-03-21T14:27:00.789Z,6.00
2023-03-21T14:28:00.974Z,4.70
2023-03-21T14:29:01.789Z,6.70
2023-03-21T14:30:01.325Z,5.90
2023-03-21T14:31:01.580Z,4.00
2023-03-21T14:32:01.687Z,4.70
2023-03-21T14:33:01.868Z,5.50
2023-03-21T14:34:02.062Z,5.20
2023-03-21T14:35:02.213Z,9.00
2023-03-21T14:36:02.451Z,3.80
2023-03-21T14:37:02.570Z,4.00
2023-03-21T14:38:02.720Z,7.10
2023-03-21T14:39:02.921Z,3.70
2023-03-21T14:40:03.069Z,5.30
2023-03-21T14:41:03.271Z,5.60
2023-03-21T14:42:03.472Z,4.00
2023-03-21T14:43:03.609Z,3.70
2023-03-21T14:44:03.813Z,6.20
2023-03-21T14:45:03.993Z,14.60
2023-03-21T14:46:04.277Z,8.20
2023-03-21T14:47:04.363Z,6.80
2023-03-21T14:48:04.539Z,8.50
2023-03-21T14:49:04.697Z,6.50
2023-03-21T14:50:04.834Z,8.70